sensor_id;sensor_type;location;lat;lon;timestamp;pressure;altitude;pressure_sealevel;temperature;humidity
23261;BME280;11799;47.740;-3.390;2023-03-20T00:01:51;102081.47;;;9.41;100.00
23261;BME280;11799;47.740;-3.390;2023-03-20T00:04:17;102075.44;;;9.39;100.00
23261;BME280;11799;47.740;-3.390;2023-03-20T00:06:43;102087.50;;;9.43;100.00
23261;BME280;11799;47.740;-3.390;2023-03-20T00:09:08;102085.19;;;9.37;100.00
23261;BME280;11799;47.740;-3.390;2023-03-20T00:11:45;102083.41;;;9.38;100.00
23261;BME280;11799;47.740;-3.390;2023-03-20T00:14:13;102075.59;;;9.36;100.00
23261;BME280;11799;47.740;-3.390;2023-03-20T00:16:42;102078.16;;;9.38;100.00
23261;BME280;11799;47.740;-3.390;2023-03-20T00:19:22;102068.69;;;9.34;100.00
23261;BME280;11799;47.740;-3.390;2023-03-20T00:21:49;102058.16;;;9.34;100.00
23261;BME280;11799;47.740;-3.390;2023-03-20T00:24:15;102059.00;;;9.34;100.00
23261;BME280;11799;47.740;-3.390;2023-03-20T00:26:43;102056.69;;;9.28;100.00
23261;BME280;11799;47.740;-3.390;2023-03-20T00:29:21;102063.81;;;9.26;100.00
23261;BME280;11799;47.740;-3.390;2023-03-20T00:31:47;102058.75;;;9.23;100.00
23261;BME280;11799;47.740;-3.390;2023-03-20T00:34:16;102061.69;;;9.17;100.00
23261;BME280;11799;47.740;-3.390;2023-03-20T00:36:45;102058.03;;;9.19;100.00
23261;BME280;11799;47.740;-3.390;2023-03-20T00:39:11;102061.69;;;9.17;100.00
23261;BME280;11799;47.740;-3.390;2023-03-20T00:44:19;102059.38;;;9.11;100.00
23261;BME280;11799;47.740;-3.390;2023-03-20T00:46:49;102069.84;;;9.12;100.00
23261;BME280;11799;47.740;-3.390;2023-03-20T00:49:16;102073.56;;;9.08;100.00
23261;BME280;11799;47.740;-3.390;2023-03-20T00:51:43;102069.31;;;9.06;100.00
23261;BME280;11799;47.740;-3.390;2023-03-20T00:54:13;102074.72;;;9.03;100.00
23261;BME280;11799;47.740;-3.390;2023-03-20T00:56:42;102070.53;;;8.99;100.00
23261;BME280;11799;47.740;-3.390;2023-03-20T00:59:14;102069.94;;;8.93;100.00
23261;BME280;11799;47.740;-3.390;2023-03-20T01:01:41;102073.19;;;8.99;100.00
23261;BME280;11799;47.740;-3.390;2023-03-20T01:04:15;102078.06;;;8.89;100.00
23261;BME280;11799;47.740;-3.390;2023-03-20T01:06:42;102079.22;;;8.83;100.00
23261;BME280;11799;47.740;-3.390;2023-03-20T01:09:08;102080.16;;;8.82;100.00
23261;BME280;11799;47.740;-3.390;2023-03-20T01:11:34;102076.91;;;8.77;100.00
23261;BME280;11799;47.740;-3.390;2023-03-20T01:14:01;102088.28;;;8.78;100.00
23261;BME280;11799;47.740;-3.390;2023-03-20T01:16:27;102091.16;;;8.73;100.00
23261;BME280;11799;47.740;-3.390;2023-03-20T01:18:53;102085.94;;;8.72;100.00
23261;BME280;11799;47.740;-3.390;2023-03-20T01:21:19;102085.25;;;8.68;100.00
23261;BME280;11799;47.740;-3.390;2023-03-20T01:23:47;102089.00;;;8.64;100.00
23261;BME280;11799;47.740;-3.390;2023-03-20T01:28:56;102084.81;;;8.60;100.00
23261;BME280;11799;47.740;-3.390;2023-03-20T01:31:22;102089.16;;;8.61;100.00
23261;BME280;11799;47.740;-3.390;2023-03-20T01:33:48;102083.88;;;8.61;100.00
23261;BME280;11799;47.740;-3.390;2023-03-20T01:36:15;102079.53;;;8.60;100.00
23261;BME280;11799;47.740;-3.390;2023-03-20T01:38:42;102085.66;;;8.60;100.00
23261;BME280;11799;47.740;-3.390;2023-03-20T01:41:16;102075.44;;;8.54;100.00
23261;BME280;11799;47.740;-3.390;2023-03-20T01:43:44;102074.56;;;8.54;100.00
23261;BME280;11799;47.740;-3.390;2023-03-20T01:53:42;102059.63;;;8.54;100.00
23261;BME280;11799;47.740;-3.390;2023-03-20T01:56:13;102062.63;;;8.47;100.00
23261;BME280;11799;47.740;-3.390;2023-03-20T01:58:48;102063.78;;;8.41;100.00
23261;BME280;11799;47.740;-3.390;2023-03-20T02:01:17;102058.59;;;8.40;100.00
23261;BME280;11799;47.740;-3.390;2023-03-20T02:03:48;102065.66;;;8.39;100.00
23261;BME280;11799;47.740;-3.390;2023-03-20T02:06:19;102063.00;;;8.39;100.00
23261;BME280;11799;47.740;-3.390;2023-03-20T02:09:05;102061.16;;;8.41;100.00
23261;BME280;11799;47.740;-3.390;2023-03-20T02:11:38;102065.72;;;8.38;100.00
23261;BME280;11799;47.740;-3.390;2023-03-20T02:14:05;102053.63;;;8.34;100.00
23261;BME280;11799;47.740;-3.390;2023-03-20T02:16:40;102051.94;;;8.33;100.00
23261;BME280;11799;47.740;-3.390;2023-03-20T02:19:25;102049.28;;;8.33;100.00
23261;BME280;11799;47.740;-3.390;2023-03-20T02:27:49;102042.44;;;8.28;100.00
23261;BME280;11799;47.740;-3.390;2023-03-20T02:41:38;102037.56;;;8.21;100.00
23261;BME280;11799;47.740;-3.390;2023-03-20T02:44:23;102026.47;;;8.14;100.00
23261;BME280;11799;47.740;-3.390;2023-03-20T02:52:55;102017.72;;;8.14;100.00
23261;BME280;11799;47.740;-3.390;2023-03-20T02:58:13;102013.38;;;8.13;100.00
23261;BME280;11799;47.740;-3.390;2023-03-20T03:00:52;102017.03;;;8.10;100.00
23261;BME280;11799;47.740;-3.390;2023-03-20T03:04:07;102018.91;;;8.08;100.00
23261;BME280;11799;47.740;-3.390;2023-03-20T03:06:28;102017.28;;;8.06;100.00
23261;BME280;11799;47.740;-3.390;2023-03-20T03:09:02;102008.38;;;8.08;100.00
23261;BME280;11799;47.740;-3.390;2023-03-20T03:11:30;102012.94;;;8.05;100.00
23261;BME280;11799;47.740;-3.390;2023-03-20T03:13:59;102005.03;;;8.05;100.00
23261;BME280;11799;47.740;-3.390;2023-03-20T03:16:28;102008.53;;;8.05;100.00
23261;BME280;11799;47.740;-3.390;2023-03-20T03:19:07;102000.78;;;8.02;100.00
23261;BME280;11799;47.740;-3.390;2023-03-20T03:21:36;102000.94;;;7.99;100.00
23261;BME280;11799;47.740;-3.390;2023-03-20T03:24:04;102004.91;;;8.08;100.00
23261;BME280;11799;47.740;-3.390;2023-03-20T03:26:33;101990.97;;;8.06;100.00
23261;BME280;11799;47.740;-3.390;2023-03-20T03:29:09;101988.25;;;8.07;100.00
23261;BME280;11799;47.740;-3.390;2023-03-20T03:31:37;101992.75;;;8.05;100.00
23261;BME280;11799;47.740;-3.390;2023-03-20T03:34:03;101993.75;;;8.03;100.00
23261;BME280;11799;47.740;-3.390;2023-03-20T03:44:53;101992.19;;;7.99;100.00
23261;BME280;11799;47.740;-3.390;2023-03-20T03:47:31;101986.06;;;7.98;100.00
23261;BME280;11799;47.740;-3.390;2023-03-20T03:50:04;101991.25;;;8.00;100.00
23261;BME280;11799;47.740;-3.390;2023-03-20T03:52:33;101991.41;;;7.97;100.00
23261;BME280;11799;47.740;-3.390;2023-03-20T03:55:07;101987.69;;;8.01;100.00
23261;BME280;11799;47.740;-3.390;2023-03-20T03:57:36;101983.44;;;7.98;100.00
23261;BME280;11799;47.740;-3.390;2023-03-20T04:00:08;101986.06;;;7.98;100.00
23261;BME280;11799;47.740;-3.390;2023-03-20T04:02:42;101986.16;;;7.97;100.00
23261;BME280;11799;47.740;-3.390;2023-03-20T04:05:10;101984.16;;;8.02;100.00
23261;BME280;11799;47.740;-3.390;2023-03-20T04:07:36;101980.88;;;7.97;100.00
23261;BME280;11799;47.740;-3.390;2023-03-20T04:10:02;101983.72;;;7.92;100.00
23261;BME280;11799;47.740;-3.390;2023-03-20T04:12:32;101974.69;;;7.98;100.00
23261;BME280;11799;47.740;-3.390;2023-03-20T04:14:58;101983.66;;;7.93;100.00
23261;BME280;11799;47.740;-3.390;2023-03-20T04:17:26;101986.22;;;7.95;100.00
23261;BME280;11799;47.740;-3.390;2023-03-20T04:19:51;101992.56;;;7.91;100.00
23261;BME280;11799;47.740;-3.390;2023-03-20T04:22:17;101996.88;;;7.92;100.00
23261;BME280;11799;47.740;-3.390;2023-03-20T04:24:43;101993.25;;;7.94;100.00
23261;BME280;11799;47.740;-3.390;2023-03-20T04:27:08;101987.91;;;7.96;100.00
23261;BME280;11799;47.740;-3.390;2023-03-20T04:29:37;101992.63;;;7.89;100.00
23261;BME280;11799;47.740;-3.390;2023-03-20T04:32:23;101983.03;;;7.88;100.00
23261;BME280;11799;47.740;-3.390;2023-03-20T04:35:11;101990.06;;;7.88;100.00
23261;BME280;11799;47.740;-3.390;2023-03-20T04:37:49;101989.22;;;7.87;100.00
23261;BME280;11799;47.740;-3.390;2023-03-20T04:40:15;101992.84;;;7.85;100.00
23261;BME280;11799;47.740;-3.390;2023-03-20T04:42:42;101982.47;;;7.82;100.00
23261;BME280;11799;47.740;-3.390;2023-03-20T04:45:08;101982.88;;;7.91;100.00
23261;BME280;11799;47.740;-3.390;2023-03-20T04:47:36;101982.25;;;7.86;100.00
23261;BME280;11799;47.740;-3.390;2023-03-20T04:50:03;101983.81;;;7.90;100.00
23261;BME280;11799;47.740;-3.390;2023-03-20T04:52:29;101980.53;;;7.85;100.00
23261;BME280;11799;47.740;-3.390;2023-03-20T04:54:55;101982.94;;;7.90;100.00
23261;BME280;11799;47.740;-3.390;2023-03-20T04:57:21;101975.28;;;7.85;100.00
23261;BME280;11799;47.740;-3.390;2023-03-20T04:59:46;101976.06;;;7.87;100.00
23261;BME280;11799;47.740;-3.390;2023-03-20T05:02:12;101968.25;;;7.86;100.00
23261;BME280;11799;47.740;-3.390;2023-03-20T05:04:41;101972.56;;;7.87;100.00
23261;BME280;11799;47.740;-3.390;2023-03-20T05:07:07;101970.88;;;7.86;100.00
23261;BME280;11799;47.740;-3.390;2023-03-20T05:09:41;101972.50;;;7.88;100.00
23261;BME280;11799;47.740;-3.390;2023-03-20T05:12:08;101972.56;;;7.87;100.00
23261;BME280;11799;47.740;-3.390;2023-03-20T05:14:54;101979.47;;;7.89;100.00
23261;BME280;11799;47.740;-3.390;2023-03-20T05:17:40;101979.25;;;7.94;100.00
23261;BME280;11799;47.740;-3.390;2023-03-20T05:20:38;101982.44;;;8.01;100.00
23261;BME280;11799;47.740;-3.390;2023-03-20T05:23:22;101972.53;;;8.06;100.00
23261;BME280;11799;47.740;-3.390;2023-03-20T05:26:02;101974.00;;;8.11;100.00
23261;BME280;11799;47.740;-3.390;2023-03-20T05:28:30;101973.06;;;8.12;100.00
23261;BME280;11799;47.740;-3.390;2023-03-20T05:31:18;101977.41;;;8.13;100.00
23261;BME280;11799;47.740;-3.390;2023-03-20T05:34:06;101983.06;;;8.23;100.00
23261;BME280;11799;47.740;-3.390;2023-03-20T05:36:58;101970.69;;;8.25;100.00
23261;BME280;11799;47.740;-3.390;2023-03-20T05:39:44;101970.53;;;8.28;100.00
23261;BME280;11799;47.740;-3.390;2023-03-20T05:42:34;101963.28;;;8.33;100.00
23261;BME280;11799;47.740;-3.390;2023-03-20T05:45:22;101968.47;;;8.35;100.00
23261;BME280;11799;47.740;-3.390;2023-03-20T05:48:03;101963.91;;;8.38;100.00
23261;BME280;11799;47.740;-3.390;2023-03-20T05:50:47;101963.69;;;8.43;100.00
23261;BME280;11799;47.740;-3.390;2023-03-20T05:53:33;101957.41;;;8.45;100.00
23261;BME280;11799;47.740;-3.390;2023-03-20T05:56:22;101960.75;;;8.49;100.00
23261;BME280;11799;47.740;-3.390;2023-03-20T05:59:07;101964.06;;;8.52;100.00
23261;BME280;11799;47.740;-3.390;2023-03-20T06:02:05;101961.38;;;8.54;100.00
23261;BME280;11799;47.740;-3.390;2023-03-20T06:04:33;101969.03;;;8.58;100.00
23261;BME280;11799;47.740;-3.390;2023-03-20T06:07:16;101976.84;;;8.60;100.00
23261;BME280;11799;47.740;-3.390;2023-03-20T06:09:47;101973.22;;;8.63;100.00
23261;BME280;11799;47.740;-3.390;2023-03-20T06:12:13;101979.31;;;8.63;100.00
23261;BME280;11799;47.740;-3.390;2023-03-20T06:14:39;101973.06;;;8.66;100.00
23261;BME280;11799;47.740;-3.390;2023-03-20T06:17:06;101982.47;;;8.70;100.00
23261;BME280;11799;47.740;-3.390;2023-03-20T06:19:33;101984.09;;;8.72;100.00
23261;BME280;11799;47.740;-3.390;2023-03-20T06:21:58;101986.56;;;8.75;100.00
23261;BME280;11799;47.740;-3.390;2023-03-20T06:24:24;101984.63;;;8.79;100.00
23261;BME280;11799;47.740;-3.390;2023-03-20T06:26:50;101981.06;;;8.80;100.00
23261;BME280;11799;47.740;-3.390;2023-03-20T06:29:16;101984.41;;;8.83;100.00
23261;BME280;11799;47.740;-3.390;2023-03-20T06:31:42;101986.94;;;8.85;100.00
23261;BME280;11799;47.740;-3.390;2023-03-20T06:34:13;101986.63;;;8.91;100.00
23261;BME280;11799;47.740;-3.390;2023-03-20T06:36:43;101987.31;;;8.94;100.00
23261;BME280;11799;47.740;-3.390;2023-03-20T06:39:14;101984.53;;;8.98;100.00
23261;BME280;11799;47.740;-3.390;2023-03-20T06:41:40;101987.09;;;8.99;100.00
23261;BME280;11799;47.740;-3.390;2023-03-20T06:44:08;101977.22;;;9.03;100.00
23261;BME280;11799;47.740;-3.390;2023-03-20T06:46:59;101977.94;;;9.06;100.00
23261;BME280;11799;47.740;-3.390;2023-03-20T06:49:24;101988.31;;;9.09;100.00
23261;BME280;11799;47.740;-3.390;2023-03-20T06:51:50;101987.38;;;9.10;100.00
23261;BME280;11799;47.740;-3.390;2023-03-20T06:54:22;101986.28;;;9.14;100.00
23261;BME280;11799;47.740;-3.390;2023-03-20T06:56:48;101986.97;;;9.18;100.00
23261;BME280;11799;47.740;-3.390;2023-03-20T06:59:13;101988.50;;;9.22;100.00
23261;BME280;11799;47.740;-3.390;2023-03-20T07:01:39;101988.31;;;9.25;100.00
23261;BME280;11799;47.740;-3.390;2023-03-20T07:04:06;101983.88;;;9.25;100.00
23261;BME280;11799;47.740;-3.390;2023-03-20T07:06:38;101991.47;;;9.32;100.00
23261;BME280;11799;47.740;-3.390;2023-03-20T07:09:03;101987.75;;;9.36;100.00
23261;BME280;11799;47.740;-3.390;2023-03-20T07:11:30;101983.16;;;9.39;100.00
23261;BME280;11799;47.740;-3.390;2023-03-20T07:13:56;101992.50;;;9.45;100.00
23261;BME280;11799;47.740;-3.390;2023-03-20T07:16:40;101985.22;;;9.50;100.00
23261;BME280;11799;47.740;-3.390;2023-03-20T07:19:06;101992.88;;;9.54;100.00
23261;BME280;11799;47.740;-3.390;2023-03-20T07:21:34;101986.41;;;9.60;100.00
23261;BME280;11799;47.740;-3.390;2023-03-20T07:24:00;101987.09;;;9.64;100.00
23261;BME280;11799;47.740;-3.390;2023-03-20T07:26:25;101985.03;;;9.69;100.00
23261;BME280;11799;47.740;-3.390;2023-03-20T07:28:51;101991.00;;;9.72;100.00
23261;BME280;11799;47.740;-3.390;2023-03-20T07:31:24;101988.97;;;9.77;100.00
23261;BME280;11799;47.740;-3.390;2023-03-20T07:34:10;101986.88;;;9.82;100.00
23261;BME280;11799;47.740;-3.390;2023-03-20T07:36:38;101991.91;;;9.87;100.00
23261;BME280;11799;47.740;-3.390;2023-03-20T07:39:04;101989.88;;;9.92;100.00
23261;BME280;11799;47.740;-3.390;2023-03-20T07:41:31;101990.38;;;9.99;100.00
23261;BME280;11799;47.740;-3.390;2023-03-20T07:44:05;101992.56;;;10.06;100.00
23261;BME280;11799;47.740;-3.390;2023-03-20T07:46:44;101989.41;;;10.15;100.00
23261;BME280;11799;47.740;-3.390;2023-03-20T07:49:15;101991.88;;;10.34;100.00
23261;BME280;11799;47.740;-3.390;2023-03-20T07:51:46;101989.56;;;10.58;100.00
23261;BME280;11799;47.740;-3.390;2023-03-20T07:54:12;101991.66;;;10.67;100.00
23261;BME280;11799;47.740;-3.390;2023-03-20T07:56:39;101991.47;;;10.70;100.00
23261;BME280;11799;47.740;-3.390;2023-03-20T07:59:06;101989.50;;;10.74;100.00
23261;BME280;11799;47.740;-3.390;2023-03-20T08:01:32;101985.94;;;10.75;100.00
23261;BME280;11799;47.740;-3.390;2023-03-20T08:03:58;101981.31;;;10.78;100.00
23261;BME280;11799;47.740;-3.390;2023-03-20T08:06:24;101987.34;;;10.80;100.00
23261;BME280;11799;47.740;-3.390;2023-03-20T08:08:50;101986.22;;;10.84;100.00
23261;BME280;11799;47.740;-3.390;2023-03-20T08:11:18;101991.50;;;10.84;100.00
23261;BME280;11799;47.740;-3.390;2023-03-20T08:13:44;101993.13;;;10.87;100.00
23261;BME280;11799;47.740;-3.390;2023-03-20T08:16:10;101991.25;;;10.89;100.00
23261;BME280;11799;47.740;-3.390;2023-03-20T08:18:35;101991.16;;;10.90;100.00
23261;BME280;11799;47.740;-3.390;2023-03-20T08:21:01;101998.97;;;10.92;100.00
23261;BME280;11799;47.740;-3.390;2023-03-20T08:23:27;101996.25;;;10.94;100.00
23261;BME280;11799;47.740;-3.390;2023-03-20T08:25:52;101994.44;;;10.94;100.00
23261;BME280;11799;47.740;-3.390;2023-03-20T08:28:19;101992.56;;;10.96;100.00
23261;BME280;11799;47.740;-3.390;2023-03-20T08:30:45;101992.56;;;10.96;100.00
23261;BME280;11799;47.740;-3.390;2023-03-20T08:33:12;101997.72;;;10.98;100.00
23261;BME280;11799;47.740;-3.390;2023-03-20T08:35:38;101999.56;;;10.97;100.00
23261;BME280;11799;47.740;-3.390;2023-03-20T08:38:03;101999.44;;;10.99;100.00
23261;BME280;11799;47.740;-3.390;2023-03-20T08:40:30;101998.56;;;10.98;100.00
23261;BME280;11799;47.740;-3.390;2023-03-20T08:42:55;101994.16;;;10.99;100.00
23261;BME280;11799;47.740;-3.390;2023-03-20T08:45:21;101989.63;;;11.01;100.00
23261;BME280;11799;47.740;-3.390;2023-03-20T08:47:50;101997.44;;;11.02;100.00
23261;BME280;11799;47.740;-3.390;2023-03-20T08:50:17;101984.22;;;11.02;100.00
23261;BME280;11799;47.740;-3.390;2023-03-20T08:52:43;101990.28;;;11.04;100.00
23261;BME280;11799;47.740;-3.390;2023-03-20T08:55:09;101992.81;;;11.06;100.00
23261;BME280;11799;47.740;-3.390;2023-03-20T08:57:35;101985.66;;;11.08;100.00
23261;BME280;11799;47.740;-3.390;2023-03-20T09:00:03;101989.81;;;11.12;100.00
23261;BME280;11799;47.740;-3.390;2023-03-20T09:02:29;101980.75;;;11.16;100.00
23261;BME280;11799;47.740;-3.390;2023-03-20T09:04:54;101981.41;;;11.19;100.00
23261;BME280;11799;47.740;-3.390;2023-03-20T09:07:20;101982.06;;;11.23;100.00
23261;BME280;11799;47.740;-3.390;2023-03-20T09:09:46;101974.69;;;11.28;100.00
23261;BME280;11799;47.740;-3.390;2023-03-20T09:12:12;101985.09;;;11.31;100.00
23261;BME280;11799;47.740;-3.390;2023-03-20T09:14:38;101970.72;;;11.35;100.00
23261;BME280;11799;47.740;-3.390;2023-03-20T09:17:03;101972.25;;;11.39;100.00
23261;BME280;11799;47.740;-3.390;2023-03-20T09:19:30;101975.72;;;11.40;100.00
23261;BME280;11799;47.740;-3.390;2023-03-20T09:21:56;101979.22;;;11.40;100.00
23261;BME280;11799;47.740;-3.390;2023-03-20T09:24:22;101978.19;;;11.43;100.00
23261;BME280;11799;47.740;-3.390;2023-03-20T09:26:48;101973.75;;;11.43;100.00
23261;BME280;11799;47.740;-3.390;2023-03-20T09:29:14;101975.44;;;11.44;100.00
23261;BME280;11799;47.740;-3.390;2023-03-20T09:31:39;101978.09;;;11.44;100.00
23261;BME280;11799;47.740;-3.390;2023-03-20T09:34:05;101974.69;;;11.42;100.00
23261;BME280;11799;47.740;-3.390;2023-03-20T09:36:31;101973.09;;;11.40;100.00
23261;BME280;11799;47.740;-3.390;2023-03-20T09:38:57;101969.50;;;11.41;100.00
23261;BME280;11799;47.740;-3.390;2023-03-20T09:41:25;101960.72;;;11.40;100.00
23261;BME280;11799;47.740;-3.390;2023-03-20T09:51:59;101957.13;;;11.41;100.00
23261;BME280;11799;47.740;-3.390;2023-03-20T09:54:44;101958.81;;;11.42;100.00
23261;BME280;11799;47.740;-3.390;2023-03-20T09:57:23;101957.78;;;11.45;100.00
23261;BME280;11799;47.740;-3.390;2023-03-20T09:59:54;101945.50;;;11.44;100.00
23261;BME280;11799;47.740;-3.390;2023-03-20T10:02:40;101950.31;;;11.51;100.00
23261;BME280;11799;47.740;-3.390;2023-03-20T10:05:43;101951.78;;;11.55;100.00
23261;BME280;11799;47.740;-3.390;2023-03-20T10:08:11;101951.28;;;11.63;100.00
23261;BME280;11799;47.740;-3.390;2023-03-20T10:21:34;101947.00;;;11.75;100.00
23261;BME280;11799;47.740;-3.390;2023-03-20T10:24:04;101953.63;;;11.82;100.00
23261;BME280;11799;47.740;-3.390;2023-03-20T10:26:33;101955.97;;;11.86;100.00
23261;BME280;11799;47.740;-3.390;2023-03-20T10:29:00;101962.03;;;11.88;100.00
23261;BME280;11799;47.740;-3.390;2023-03-20T10:37:01;101961.03;;;12.04;100.00
23261;BME280;11799;47.740;-3.390;2023-03-20T10:42:20;101959.69;;;12.11;100.00
23261;BME280;11799;47.740;-3.390;2023-03-20T10:44:53;101963.50;;;12.19;100.00
23261;BME280;11799;47.740;-3.390;2023-03-20T10:47:23;101952.69;;;12.22;100.00
23261;BME280;11799;47.740;-3.390;2023-03-20T10:50:20;101953.78;;;12.33;100.00
23261;BME280;11799;47.740;-3.390;2023-03-20T10:52:50;101955.16;;;12.38;100.00
23261;BME280;11799;47.740;-3.390;2023-03-20T10:55:19;101951.34;;;12.42;100.00
23261;BME280;11799;47.740;-3.390;2023-03-20T10:58:01;101959.41;;;12.41;100.00
23261;BME280;11799;47.740;-3.390;2023-03-20T11:00:27;101956.56;;;12.44;100.00
23261;BME280;11799;47.740;-3.390;2023-03-20T11:02:53;101952.31;;;12.41;100.00
23261;BME280;11799;47.740;-3.390;2023-03-20T11:05:22;101948.72;;;12.42;100.00
23261;BME280;11799;47.740;-3.390;2023-03-20T11:08:00;101952.94;;;12.45;100.00
23261;BME280;11799;47.740;-3.390;2023-03-20T11:10:27;101950.19;;;12.46;100.00
23261;BME280;11799;47.740;-3.390;2023-03-20T11:12:52;101955.72;;;12.43;100.00
23261;BME280;11799;47.740;-3.390;2023-03-20T11:15:32;101948.41;;;12.47;100.00
23261;BME280;11799;47.740;-3.390;2023-03-20T11:18:02;101950.31;;;12.45;100.00
23261;BME280;11799;47.740;-3.390;2023-03-20T11:20:34;101952.22;;;12.43;100.00
23261;BME280;11799;47.740;-3.390;2023-03-20T11:23:05;101945.09;;;12.43;100.00
23261;BME280;11799;47.740;-3.390;2023-03-20T11:25:43;101938.22;;;12.41;100.00
23261;BME280;11799;47.740;-3.390;2023-03-20T11:30:43;101938.25;;;12.53;100.00
23261;BME280;11799;47.740;-3.390;2023-03-20T11:33:09;101943.75;;;12.63;100.00
23261;BME280;11799;47.740;-3.390;2023-03-20T11:35:35;101941.53;;;12.70;100.00
23261;BME280;11799;47.740;-3.390;2023-03-20T11:38:19;101933.34;;;12.73;100.00
23261;BME280;11799;47.740;-3.390;2023-03-20T11:40:46;101941.09;;;12.76;100.00
23261;BME280;11799;47.740;-3.390;2023-03-20T11:43:22;101937.09;;;12.70;100.00
23261;BME280;11799;47.740;-3.390;2023-03-20T11:45:58;101929.88;;;12.60;99.00
23261;BME280;11799;47.740;-3.390;2023-03-20T11:48:35;101933.25;;;12.62;100.00
23261;BME280;11799;47.740;-3.390;2023-03-20T11:51:04;101925.63;;;12.57;99.35
23261;BME280;11799;47.740;-3.390;2023-03-20T11:53:41;101929.34;;;12.54;100.00
23261;BME280;11799;47.740;-3.390;2023-03-20T12:01:13;101917.47;;;12.47;100.00
23261;BME280;11799;47.740;-3.390;2023-03-20T12:06:14;101913.75;;;12.63;100.00
23261;BME280;11799;47.740;-3.390;2023-03-20T12:08:40;101914.41;;;12.66;100.00
23261;BME280;11799;47.740;-3.390;2023-03-20T12:11:30;101906.44;;;12.66;100.00
23261;BME280;11799;47.740;-3.390;2023-03-20T12:14:01;101901.66;;;12.71;100.00
23261;BME280;11799;47.740;-3.390;2023-03-20T12:16:29;101893.31;;;12.65;96.83
23261;BME280;11799;47.740;-3.390;2023-03-20T12:19:00;101898.03;;;12.72;100.00
23261;BME280;11799;47.740;-3.390;2023-03-20T12:21:38;101895.19;;;12.75;99.81
23261;BME280;11799;47.740;-3.390;2023-03-20T12:24:12;101896.44;;;12.82;100.00
23261;BME280;11799;47.740;-3.390;2023-03-20T12:29:21;101892.63;;;12.86;97.39
23261;BME280;11799;47.740;-3.390;2023-03-20T12:31:57;101895.72;;;12.80;97.45
23261;BME280;11799;47.740;-3.390;2023-03-20T12:34:34;101892.94;;;12.82;98.66
23261;BME280;11799;47.740;-3.390;2023-03-20T12:37:02;101901.84;;;12.94;99.00
23261;BME280;11799;47.740;-3.390;2023-03-20T12:39:34;101895.16;;;13.01;99.33
23261;BME280;11799;47.740;-3.390;2023-03-20T12:45:25;101896.53;;;13.06;96.17
23261;BME280;11799;47.740;-3.390;2023-03-20T12:50:38;101890.78;;;13.12;100.00
23261;BME280;11799;47.740;-3.390;2023-03-20T13:01:57;101882.44;;;13.18;98.15
23261;BME280;11799;47.740;-3.390;2023-03-20T13:07:30;101882.84;;;13.25;98.50
23261;BME280;11799;47.740;-3.390;2023-03-20T13:10:14;101876.06;;;13.21;99.08
23261;BME280;11799;47.740;-3.390;2023-03-20T13:15:29;101870.41;;;13.13;97.61
23261;BME280;11799;47.740;-3.390;2023-03-20T13:18:00;101868.19;;;13.07;97.15
23261;BME280;11799;47.740;-3.390;2023-03-20T13:23:24;101866.81;;;13.14;98.66
23261;BME280;11799;47.740;-3.390;2023-03-20T13:29:01;101860.75;;;13.12;98.11
23261;BME280;11799;47.740;-3.390;2023-03-20T13:37:36;101856.00;;;13.17;100.00
23261;BME280;11799;47.740;-3.390;2023-03-20T13:40:15;101849.94;;;13.15;99.38
23261;BME280;11799;47.740;-3.390;2023-03-20T13:42:59;101856.19;;;13.14;100.00
23261;BME280;11799;47.740;-3.390;2023-03-20T13:45:36;101851.75;;;13.14;98.48
23261;BME280;11799;47.740;-3.390;2023-03-20T13:53:52;101851.88;;;13.00;96.06
23261;BME280;11799;47.740;-3.390;2023-03-20T14:04:34;101839.38;;;12.89;94.46
23261;BME280;11799;47.740;-3.390;2023-03-20T14:07:00;101831.44;;;12.89;95.72
23261;BME280;11799;47.740;-3.390;2023-03-20T14:09:30;101836.63;;;12.91;95.87
23261;BME280;11799;47.740;-3.390;2023-03-20T14:12:05;101838.75;;;12.86;94.05
23261;BME280;11799;47.740;-3.390;2023-03-20T14:14:42;101830.38;;;12.79;94.18
23261;BME280;11799;47.740;-3.390;2023-03-20T14:17:16;101832.31;;;12.77;93.68
23261;BME280;11799;47.740;-3.390;2023-03-20T14:19:43;101822.03;;;12.73;94.99
23261;BME280;11799;47.740;-3.390;2023-03-20T14:22:16;101819.72;;;12.68;94.66
23261;BME280;11799;47.740;-3.390;2023-03-20T14:24:49;101824.41;;;12.65;92.85
23261;BME280;11799;47.740;-3.390;2023-03-20T14:27:17;101822.28;;;12.57;92.18
23261;BME280;11799;47.740;-3.390;2023-03-20T14:29:44;101814.66;;;12.52;92.09
23261;BME280;11799;47.740;-3.390;2023-03-20T14:38:03;101808.63;;;12.50;94.81
23261;BME280;11799;47.740;-3.390;2023-03-20T14:40:37;101819.22;;;12.50;96.14
23261;BME280;11799;47.740;-3.390;2023-03-20T14:43:18;101813.72;;;12.53;95.69
23261;BME280;11799;47.740;-3.390;2023-03-20T14:45:53;101819.53;;;12.46;95.44
23261;BME280;11799;47.740;-3.390;2023-03-20T14:48:42;101825.69;;;12.46;96.13
23261;BME280;11799;47.740;-3.390;2023-03-20T14:53:56;101814.13;;;12.47;98.23
23261;BME280;11799;47.740;-3.390;2023-03-20T14:56:32;101811.38;;;12.49;99.34
23261;BME280;11799;47.740;-3.390;2023-03-20T14:59:05;101819.31;;;12.49;97.19
23261;BME280;11799;47.740;-3.390;2023-03-20T15:04:21;101806.94;;;12.49;97.15
23261;BME280;11799;47.740;-3.390;2023-03-20T15:09:25;101808.84;;;12.47;95.56
23261;BME280;11799;47.740;-3.390;2023-03-20T15:11:52;101798.25;;;12.47;95.64
23261;BME280;11799;47.740;-3.390;2023-03-20T15:14:23;101795.59;;;12.47;95.48
23261;BME280;11799;47.740;-3.390;2023-03-20T15:16:57;101800.88;;;12.47;98.28
23261;BME280;11799;47.740;-3.390;2023-03-20T15:19:23;101795.91;;;12.43;96.46
23261;BME280;11799;47.740;-3.390;2023-03-20T15:21:49;101795.16;;;12.41;99.38
23261;BME280;11799;47.740;-3.390;2023-03-20T15:24:28;101801.41;;;12.40;97.23
23261;BME280;11799;47.740;-3.390;2023-03-20T15:26:59;101794.31;;;12.40;97.09